Time;durP1;ratioP1;P1;durP2;ratioP2;P2;SDS_P1;SDS_P2;PMS_P1;PMS_P2;Temp;Humidity;BMP_temperature;BMP_pressure;BME280_temperature;BME280_humidity;BME280_pressure;Samples;Min_cycle;Max_cycle;Signal;HPM_P1;HPM_P2
2023/12/14 00:00:07;;;;;;;;;;;;;;;;;;6279178;28;19920;-80
2023/12/14 00:03:07;;;;;;;;;;;;;;;;;;6277915;28;19931;-80
2023/12/14 00:06:08;;;;;;;;;;;;;;;;;;6280194;28;19921;-80
2023/12/14 00:09:08;;;;;;;;;;;;;;;;;;6276566;28;19913;-80
2023/12/14 00:12:08;;;;;;;;;;;;;;;;;;6273331;28;19913;-80
2023/12/14 00:15:08;;;;;;;;;;;;;;;;;;6279989;28;19912;-80
2023/12/14 00:18:08;;;;;;;;;;;;;;;;;;6284896;28;19917;-81
2023/12/14 00:21:09;;;;;;;;;;;;;;;;;;6297681;28;19923;-81
2023/12/14 00:24:09;;;;;;;;;;;;;;;;;;6285409;28;19912;-81
2023/12/14 00:27:09;;;;;;;;;;;;;;;;;;6286550;28;20341;-80
2023/12/14 00:30:09;;;;;;;;;;;;;;;;;;6277799;28;20328;-80
2023/12/14 00:33:09;;;;;;;;;;;;;;;;;;6284290;28;20293;-81
2023/12/14 00:36:09;;;;;;;;;;;;;;;;;;6279867;28;19920;-80
2023/12/14 00:39:09;;;;;;;;;;;;;;;;;;6278543;28;19919;-80
2023/12/14 00:42:10;;;;;;;;;;;;;;;;;;6281711;28;19912;-80
2023/12/14 00:45:10;;;;;;;;;;;;;;;;;;6279473;28;20391;-80
2023/12/14 00:48:10;;;;;;;;;;;;;;;;;;6280331;28;19939;-80
2023/12/14 00:51:10;;;;;;;;;;;;;;;;;;6282643;28;19970;-80
2023/12/14 00:54:10;;;;;;;;;;;;;;;;;;6282351;28;19913;-80
2023/12/14 00:57:10;;;;;;;;;;;;;;;;;;6282533;28;20268;-80
2023/12/14 01:00:10;;;;;;;;;;;;;;;;;;6281654;28;19921;-80
2023/12/14 01:03:11;;;;;;;;;;;;;;;;;;6279304;28;19919;-80
2023/12/14 01:06:11;;;;;;;;;;;;;;;;;;6284431;28;19974;-81
2023/12/14 01:09:11;;;;;;;;;;;;;;;;;;6281302;28;20350;-80
2023/12/14 01:12:11;;;;;;;;;;;;;;;;;;6283555;28;19923;-80
2023/12/14 01:15:11;;;;;;;;;;;;;;;;;;6270505;28;20436;-80
2023/12/14 01:18:12;;;;;;;;;;;;;;;;;;6294565;28;20365;-80
2023/12/14 01:21:12;;;;;;;;;;;;;;;;;;6282056;28;19916;-80
2023/12/14 01:24:14;;;;;;;;;;;;;;;;;;6274515;28;19920;-80
2023/12/14 01:27:14;;;;;;;;;;;;;;;;;;6284875;28;19920;-80
2023/12/14 01:30:14;;;;;;;;;;;;;;;;;;6281320;28;19920;-81
2023/12/14 01:33:14;;;;;;;;;;;;;;;;;;6281724;28;19913;-81
2023/12/14 01:36:14;;;;;;;;;;;;;;;;;;6280931;28;19919;-80
2023/12/14 01:39:14;;;;;;;;;;;;;;;;;;6280358;28;19919;-80
2023/12/14 01:42:15;;;;;;;;;;;;;;;;;;6284105;28;19912;-81
2023/12/14 01:45:16;;;;;;;;;;;;;;;;;;6268624;28;19925;-81
2023/12/14 01:48:16;;;;;;;;;;;;;;;;;;6281736;28;19923;-80
2023/12/14 01:51:16;;;;;;;;;;;;;;;;;;6278297;28;19995;-80
2023/12/14 01:54:16;;;;;;;;;;;;;;;;;;6279377;28;19999;-81
2023/12/14 01:57:16;;;;;;;;;;;;;;;;;;6296984;28;20030;-80
2023/12/14 02:00:17;;;;;;;;;;;;;;;;;;6283384;28;19920;-80
2023/12/14 02:03:17;;;;;;;;;;;;;;;;;;6737160;22;19924;-84
2023/12/14 02:06:17;;;;;;;;;;;;;;;;;;6291552;28;19962;-84
2023/12/14 02:09:17;;;;;;;;;;;;;;;;;;6306195;28;19912;-84
2023/12/14 02:12:17;;;;;;;;;;;;;;;;;;6309298;28;19920;-84
2023/12/14 02:15:17;;;;;;;;;;;;;;;;;;6316706;28;19927;-85
2023/12/14 02:18:17;;;;;;;;;;;;;;;;;;6314137;28;20309;-83
2023/12/14 02:21:19;;;;;;;;;;;;;;;;;;6315663;28;19934;-84
2023/12/14 02:24:19;;;;;;;;;;;;;;;;;;6315362;28;19970;-85
2023/12/14 02:27:19;;;;;;;;;;;;;;;;;;6314130;28;19982;-85
2023/12/14 02:30:19;;;;;;;;;;;;;;;;;;6314712;28;19967;-84
2023/12/14 02:33:19;;;;;;;;;;;;;;;;;;6311780;28;20007;-85
2023/12/14 02:36:19;;;;;;;;;;;;;;;;;;6311218;28;19962;-85
2023/12/14 02:39:19;;;;;;;;;;;;;;;;;;6311969;28;20174;-84
2023/12/14 02:42:19;;;;;;;;;;;;;;;;;;6309835;28;20287;-85
2023/12/14 02:45:20;;;;;;;;;;;;;;;;;;6312214;28;20264;-85
2023/12/14 02:48:20;;;;;;;;;;;;;;;;;;6310432;28;19912;-84
2023/12/14 02:51:20;;;;;;;;;;;;;;;;;;6313881;28;19939;-84
2023/12/14 02:54:20;;;;;;;;;;;;;;;;;;6313850;28;19922;-84
2023/12/14 02:57:20;;;;;;;;;;;;;;;;;;6312290;28;19912;-84
2023/12/14 03:00:20;;;;;;;;;;;;;;;;;;6312055;28;19967;-85
2023/12/14 03:03:21;;;;;;;;;;;;;;;;;;6312710;28;19971;-83
2023/12/14 03:06:21;;;;;;;;;;;;;;;;;;6310144;28;19928;-84
2023/12/14 03:09:21;;;;;;;;;;;;;;;;;;6311147;28;19973;-84
2023/12/14 03:12:21;;;;;;;;;;;;;;;;;;6310081;28;20388;-84
2023/12/14 03:15:22;;;;;;;;;;;;;;;;;;6311939;28;20027;-83
2023/12/14 03:18:22;;;;;;;;;;;;;;;;;;6311807;28;20022;-84
2023/12/14 03:21:22;;;;;;;;;;;;;;;;;;6297967;28;19913;-85
2023/12/14 03:24:22;;;;;;;;;;;;;;;;;;6313607;28;19912;-85
2023/12/14 03:27:23;;;;;;;;;;;;;;;;;;6295912;28;19951;-85
2023/12/14 03:30:26;;;;;;;;;;;;;;;;;;6311517;28;19908;-84
2023/12/14 03:33:26;;;;;;;;;;;;;;;;;;6313156;28;19920;-85
2023/12/14 03:36:27;;;;;;;;;;;;;;;;;;6311372;28;19912;-84
2023/12/14 03:39:27;;;;;;;;;;;;;;;;;;6313875;28;20017;-84
2023/12/14 03:42:27;;;;;;;;;;;;;;;;;;6312117;28;19924;-84
2023/12/14 03:45:27;;;;;;;;;;;;;;;;;;6310042;28;19931;-85
2023/12/14 03:48:27;;;;;;;;;;;;;;;;;;6297620;28;19912;-85
2023/12/14 03:51:28;;;;;;;;;;;;;;;;;;6297639;28;19912;-85
2023/12/14 03:54:28;;;;;;;;;;;;;;;;;;6310188;28;20328;-84
2023/12/14 03:57:28;;;;;;;;;;;;;;;;;;6309171;28;19977;-85
2023/12/14 04:00:28;;;;;;;;;;;;;;;;;;6311779;28;20256;-84
2023/12/14 04:03:28;;;;;;;;;;;;;;;;;;6334304;28;19935;-85
2023/12/14 04:06:28;;;;;;;;;;;;;;;;;;6334205;28;19920;-84
2023/12/14 04:09:29;;;;;;;;;;;;;;;;;;6334730;28;19911;-84
2023/12/14 04:12:29;;;;;;;;;;;;;;;;;;6337525;28;19915;-85
2023/12/14 04:15:29;;;;;;;;;;;;;;;;;;6335443;28;19916;-85
2023/12/14 04:18:29;;;;;;;;;;;;;;;;;;6330651;28;19916;-84
2023/12/14 04:21:29;;;;;;;;;;;;;;;;;;6331531;28;19938;-84
2023/12/14 04:24:30;;;;;;;;;;;;;;;;;;6338031;28;20294;-84
2023/12/14 04:27:30;;;;;;;;;;;;;;;;;;6316318;28;19928;-85
2023/12/14 04:30:30;;;;;;;;;;;;;;;;;;6332283;28;19911;-85
2023/12/14 04:33:31;;;;;;;;;;;;;;;;;;6339709;28;20002;-80
2023/12/14 04:36:31;;;;;;;;;;;;;;;;;;6336545;28;19962;-80
2023/12/14 04:39:32;;;;;;;;;;;;;;;;;;6316170;28;19912;-80
2023/12/14 04:42:32;;;;;;;;;;;;;;;;;;6328746;28;19912;-80
2023/12/14 04:45:32;;;;;;;;;;;;;;;;;;6335936;28;19954;-80
2023/12/14 04:48:32;;;;;;;;;;;;;;;;;;6337836;28;20476;-80
2023/12/14 04:51:32;;;;;;;;;;;;;;;;;;6319901;28;19980;-80
2023/12/14 04:54:32;;;;;;;;;;;;;;;;;;6330706;28;19912;-80
2023/12/14 04:57:33;;;;;;;;;;;;;;;;;;6335368;28;20408;-80
2023/12/14 05:00:33;;;;;;;;;;;;;;;;;;6337705;28;19912;-80
2023/12/14 05:03:33;;;;;;;;;;;;;;;;;;6332849;28;19984;-80
2023/12/14 05:06:34;;;;;;;;;;;;;;;;;;6336106;28;19927;-80
2023/12/14 05:09:35;;;;;;;;;;;;;;;;;;6335149;28;19916;-81
2023/12/14 05:12:35;;;;;;;;;;;;;;;;;;6338348;28;19911;-80
2023/12/14 05:15:35;;;;;;;;;;;;;;;;;;6338010;28;20417;-81
2023/12/14 05:18:35;;;;;;;;;;;;;;;;;;6333827;28;20252;-80
2023/12/14 05:21:35;;;;;;;;;;;;;;;;;;6337556;28;20287;-80
2023/12/14 05:24:36;;;;;;;;;;;;;;;;;;6336504;28;19912;-79
2023/12/14 05:27:36;;;;;;;;;;;;;;;;;;6330916;28;20317;-81
2023/12/14 05:30:37;;;;;;;;;;;;;;;;;;6335083;28;19912;-80
2023/12/14 05:33:37;;;;;;;;;;;;;;;;;;6337462;28;20271;-80
2023/12/14 05:36:37;;;;;;;;;;;;;;;;;;6338400;28;19916;-80
2023/12/14 05:39:37;;;;;;;;;;;;;;;;;;6312237;28;20549;-80
2023/12/14 05:42:37;;;;;;;;;;;;;;;;;;6321676;28;22138;-80
2023/12/14 05:45:37;;;;;;;;;;;;;;;;;;6335707;28;19924;-80
2023/12/14 05:48:37;;;;;;;;;;;;;;;;;;6338812;28;19919;-80
2023/12/14 05:51:39;;;;;;;;;;;;;;;;;;6341642;28;19915;-79
2023/12/14 05:54:42;;;;;;;;;;;;;;;;;;6335563;28;19920;-80
2023/12/14 05:57:42;;;;;;;;;;;;;;;;;;6340080;28;20375;-80
2023/12/14 06:00:42;;;;;;;;;;;;;;;;;;6340941;28;19937;-81
2023/12/14 06:03:42;;;;;;;;;;;;;;;;;;6341776;27;19924;-80
2023/12/14 06:06:42;;;;;;;;;;;;;;;;;;6324856;27;20488;-81
2023/12/14 06:09:43;;;;;;;;;;;;;;;;;;6338992;27;19915;-81
2023/12/14 06:12:43;;;;;;;;;;;;;;;;;;6343571;27;19916;-81
2023/12/14 06:15:43;;;;;;;;;;;;;;;;;;6341246;27;19937;-80
2023/12/14 06:18:43;;;;;;;;;;;;;;;;;;6343462;27;19915;-81
2023/12/14 06:21:43;;;;;;;;;;;;;;;;;;6342661;27;19919;-81
2023/12/14 06:24:43;;;;;;;;;;;;;;;;;;6343029;27;19912;-81
2023/12/14 06:27:44;;;;;;;;;;;;;;;;;;6340292;27;20010;-80
2023/12/14 06:30:44;;;;;;;;;;;;;;;;;;6344017;27;20419;-80
2023/12/14 06:33:45;;;;;;;;;;;;;;;;;;6339390;27;19915;-80
2023/12/14 06:36:45;;;;;;;;;;;;;;;;;;6338545;27;19916;-80
2023/12/14 06:39:46;;;;;;;;;;;;;;;;;;6335382;27;19962;-80
2023/12/14 06:42:46;;;;;;;;;;;;;;;;;;6337398;27;19923;-80
2023/12/14 06:45:46;;;;;;;;;;;;;;;;;;6323043;28;20287;-80
2023/12/14 06:48:46;;;;;;;;;;;;;;;;;;6337357;27;20346;-80
2023/12/14 06:51:46;;;;;;;;;;;;;;;;;;6332288;27;20388;-80
2023/12/14 06:54:47;;;;;;;;;;;;;;;;;;6334935;27;20333;-80
2023/12/14 06:57:47;;;;;;;;;;;;;;;;;;6340552;27;20343;-80
2023/12/14 07:00:47;;;;;;;;;;;;;;;;;;6333585;27;19920;-80
2023/12/14 07:03:47;;;;;;;;;;;;;;;;;;6322481;27;19915;-81
2023/12/14 07:06:47;;;;;;;;;;;;;;;;;;6337705;27;19920;-80
2023/12/14 07:09:48;;;;;;;;;;;;;;;;;;6338379;27;19922;-79
2023/12/14 07:12:48;;;;;;;;;;;;;;;;;;6335612;27;19957;-79
2023/12/14 07:15:49;;;;;;;;;;;;;;;;;;6339920;27;19927;-79
2023/12/14 07:18:49;;;;;;;;;;;;;;;;;;6334976;27;19999;-78
2023/12/14 07:21:49;;;;;;;;;;;;;;;;;;6337232;27;19938;-79
2023/12/14 07:24:49;;;;;;;;;;;;;;;;;;6336158;27;20006;-79
2023/12/14 07:27:50;;;;;;;;;;;;;;;;;;6316938;28;20064;-79
2023/12/14 07:30:50;;;;;;;;;;;;;;;;;;6337202;27;20651;-79
2023/12/14 07:33:50;;;;;;;;;;;;;;;;;;6340573;27;19962;-80
2023/12/14 07:36:51;;;;;;;;;;;;;;;;;;6338181;27;19927;-79
2023/12/14 07:39:51;;;;;;;;;;;;;;;;;;6330562;27;19916;-79
2023/12/14 07:42:51;;;;;;;;;;;;;;;;;;6334096;27;19916;-79
2023/12/14 07:45:51;;;;;;;;;;;;;;;;;;6320747;27;19924;-79
2023/12/14 07:48:51;;;;;;;;;;;;;;;;;;6339072;27;19974;-79
2023/12/14 07:51:51;;;;;;;;;;;;;;;;;;6335194;27;19915;-79
2023/12/14 07:54:51;;;;;;;;;;;;;;;;;;6336902;27;19916;-78
2023/12/14 07:57:52;;;;;;;;;;;;;;;;;;6342431;27;20018;-79
2023/12/14 08:00:52;;;;;;;;;;;;;;;;;;6322698;27;20011;-78
2023/12/14 08:03:52;;;;;;;;;;;;;;;;;;6314852;28;20290;-80
2023/12/14 08:06:52;;;;;;;;;;;;;;;;;;6333766;28;20428;-79
2023/12/14 08:09:52;;;;;;;;;;;;;;;;;;6335817;28;19915;-79
2023/12/14 08:12:52;;;;;;;;;;;;;;;;;;6328528;28;19920;-79
2023/12/14 08:15:53;;;;;;;;;;;;;;;;;;6317167;28;20392;-80
2023/12/14 08:18:53;;;;;;;;;;;;;;;;;;6325168;28;20371;-82
2023/12/14 08:21:53;;;;;;;;;;;;;;;;;;6326443;28;20371;-79
2023/12/14 08:24:53;;;;;;;;;;;;;;;;;;6332693;28;19969;-85
2023/12/14 08:27:53;;;;;;;;;;;;;;;;;;6333824;28;19924;-86
2023/12/14 08:30:53;;;;;;;;;;;;;;;;;;6332128;28;19919;-85
2023/12/14 08:33:54;;;;;;;;;;;;;;;;;;6331829;28;19915;-85
2023/12/14 08:36:54;;;;;;;;;;;;;;;;;;5976857;28;10000532;-85
2023/12/14 08:39:55;;;;;;;;;;;;;;;;;;6316041;28;19945;-79
2023/12/14 08:42:55;;;;;;;;;;;;;;;;;;6336431;28;20010;-79
2023/12/14 08:45:55;;;;;;;;;;;;;;;;;;6315899;28;19928;-78
2023/12/14 08:48:55;;;;;;;;;;;;;;;;;;6333204;28;19911;-78
2023/12/14 08:51:55;;;;;;;;;;;;;;;;;;6333120;28;19912;-78
2023/12/14 08:54:56;;;;;;;;;;;;;;;;;;6334271;28;19912;-79
2023/12/14 08:57:56;;;;;;;;;;;;;;;;;;6335412;28;19926;-79
2023/12/14 09:00:56;;;;;;;;;;;;;;;;;;6314274;28;19916;-79
2023/12/14 09:03:56;;;;;;;;;;;;;;;;;;6316602;28;19912;-79
2023/12/14 09:06:56;;;;;;;;;;;;;;;;;;6334254;28;20294;-79
2023/12/14 09:09:57;;;;;;;;;;;;;;;;;;6330497;28;20325;-79
2023/12/14 09:12:57;;;;;;;;;;;;;;;;;;6331006;28;19926;-80
2023/12/14 09:15:57;;;;;;;;;;;;;;;;;;6333116;28;19917;-79
2023/12/14 09:18:57;;;;;;;;;;;;;;;;;;6330973;28;19920;-79
2023/12/14 09:21:57;;;;;;;;;;;;;;;;;;6330830;28;19980;-79
2023/12/14 09:24:57;;;;;;;;;;;;;;;;;;6337313;28;19912;-79
2023/12/14 09:27:58;;;;;;;;;;;;;;;;;;6323094;28;19919;-79
2023/12/14 09:30:58;;;;;;;;;;;;;;;;;;6337438;28;19912;-78
2023/12/14 09:33:58;;;;;;;;;;;;;;;;;;6324912;28;19916;-79
2023/12/14 09:36:58;;;;;;;;;;;;;;;;;;5987014;28;9999876;-78
2023/12/14 09:39:58;;;;;;;;;;;;;;;;;;6333710;28;19920;-79
2023/12/14 09:42:58;;;;;;;;;;;;;;;;;;6340518;28;19912;-79
2023/12/14 09:45:58;;;;;;;;;;;;;;;;;;6325308;28;19945;-80
2023/12/14 09:48:59;;;;;;;;;;;;;;;;;;6342890;28;19973;-81
2023/12/14 09:51:59;;;;;;;;;;;;;;;;;;6341763;28;19921;-79
2023/12/14 09:54:59;;;;;;;;;;;;;;;;;;6341058;28;20264;-79
2023/12/14 09:57:59;;;;;;;;;;;;;;;;;;6342705;28;19922;-80
2023/12/14 10:01:04;;;;;;;;;;;;;;;;;;6321019;28;19920;-80
2023/12/14 10:04:04;;;;;;;;;;;;;;;;;;6325509;28;19912;-81
2023/12/14 10:07:06;;;;;;;;;;;;;;;;;;6328039;28;19928;-79
2023/12/14 10:10:07;;;;;;;;;;;;;;;;;;6339541;27;19965;-80
2023/12/14 10:13:07;;;;;;;;;;;;;;;;;;6333766;28;19916;-81
2023/12/14 10:16:07;;;;;;;;;;;;;;;;;;6327396;27;20352;-80
2023/12/14 10:19:07;;;;;;;;;;;;;;;;;;6335220;27;20391;-80
2023/12/14 10:22:08;;;;;;;;;;;;;;;;;;6347808;27;19920;-80
2023/12/14 10:25:09;;;;;;;;;;;;;;;;;;6324925;28;19920;-81
2023/12/14 10:28:09;;;;;;;;;;;;;;;;;;6343676;27;19920;-81
2023/12/14 10:31:10;;;;;;;;;;;;;;;;;;6323897;27;19923;-80
2023/12/14 10:34:12;;;;;;;;;;;;;;;;;;6335864;27;19923;-81
2023/12/14 10:37:12;;;;;;;;;;;;;;;;;;6340288;27;19912;-81
2023/12/14 10:40:12;;;;;;;;;;;;;;;;;;6336954;28;20425;-80
2023/12/14 10:43:13;;;;;;;;;;;;;;;;;;6332988;28;19973;-81
2023/12/14 10:46:13;;;;;;;;;;;;;;;;;;6336009;28;19920;-81
2023/12/14 10:49:13;;;;;;;;;;;;;;;;;;6350827;28;19911;-81
2023/12/14 10:52:13;;;;;;;;;;;;;;;;;;6336479;28;19953;-80
2023/12/14 10:55:13;;;;;;;;;;;;;;;;;;6347602;28;19911;-80
2023/12/14 10:58:14;;;;;;;;;;;;;;;;;;6339068;28;19915;-80
2023/12/14 11:01:14;;;;;;;;;;;;;;;;;;6331685;28;19919;-80
2023/12/14 11:04:16;;;;;;;;;;;;;;;;;;6342013;27;20340;-80
2023/12/14 11:07:16;;;;;;;;;;;;;;;;;;6321515;27;19920;-81
2023/12/14 11:10:17;;;;;;;;;;;;;;;;;;6338912;27;20256;-81
2023/12/14 11:13:17;;;;;;;;;;;;;;;;;;6338386;27;20283;-81
2023/12/14 11:16:17;;;;;;;;;;;;;;;;;;6336053;27;19912;-80
2023/12/14 11:19:18;;;;;;;;;;;;;;;;;;6340642;28;19951;-81
2023/12/14 11:22:18;;;;;;;;;;;;;;;;;;6344722;28;19907;-82
2023/12/14 11:25:18;;;;;;;;;;;;;;;;;;6344053;28;19912;-81
2023/12/14 11:28:18;;;;;;;;;;;;;;;;;;6325655;28;19912;-81
2023/12/14 11:31:18;;;;;;;;;;;;;;;;;;6342568;28;19912;-81
2023/12/14 11:34:19;;;;;;;;;;;;;;;;;;6344898;28;19971;-85
2023/12/14 11:37:20;;;;;;;;;;;;;;;;;;6344277;28;19912;-85
2023/12/14 11:40:22;;;;;;;;;;;;;;;;;;6334541;28;20371;-85
2023/12/14 11:43:24;;;;;;;;;;;;;;;;;;6340756;28;20367;-85
2023/12/14 11:46:25;;;;;;;;;;;;;;;;;;6323600;28;19919;-85
2023/12/14 11:49:26;;;;;;;;;;;;;;;;;;6342649;28;20283;-84
2023/12/14 11:52:26;;;;;;;;;;;;;;;;;;6339283;27;19965;-85
2023/12/14 11:55:26;;;;;;;;;;;;;;;;;;6338829;28;20318;-85
2023/12/14 11:58:26;;;;;;;;;;;;;;;;;;6319625;28;19923;-85
2023/12/14 12:01:28;;;;;;;;;;;;;;;;;;6335692;28;19931;-85
2023/12/14 12:04:28;;;;;;;;;;;;;;;;;;6341271;28;19920;-85
2023/12/14 12:07:28;;;;;;;;;;;;;;;;;;6336623;28;20430;-85
2023/12/14 12:10:28;;;;;;;;;;;;;;;;;;6317403;28;19912;-85
2023/12/14 12:13:28;;;;;;;;;;;;;;;;;;6345171;28;19912;-85
2023/12/14 12:16:29;;;;;;;;;;;;;;;;;;6349571;28;20437;-85
2023/12/14 12:19:29;;;;;;;;;;;;;;;;;;6348980;28;19919;-86
2023/12/14 12:22:29;;;;;;;;;;;;;;;;;;6342833;28;19918;-85
2023/12/14 12:25:29;;;;;;;;;;;;;;;;;;6317431;28;19926;-85
2023/12/14 12:28:29;;;;;;;;;;;;;;;;;;6339889;28;20291;-84
2023/12/14 12:31:29;;;;;;;;;;;;;;;;;;6336899;28;19919;-85
2023/12/14 12:34:29;;;;;;;;;;;;;;;;;;6335341;28;20375;-86
2023/12/14 12:37:30;;;;;;;;;;;;;;;;;;6340612;28;19916;-85
2023/12/14 12:40:31;;;;;;;;;;;;;;;;;;6320185;28;19919;-84
2023/12/14 12:43:31;;;;;;;;;;;;;;;;;;6319296;28;19919;-80
2023/12/14 12:46:31;;;;;;;;;;;;;;;;;;6342726;28;20321;-80
2023/12/14 12:49:31;;;;;;;;;;;;;;;;;;6338726;28;19912;-80
2023/12/14 12:52:32;;;;;;;;;;;;;;;;;;6321396;28;20391;-80
2023/12/14 12:55:32;;;;;;;;;;;;;;;;;;6317006;28;20279;-81
2023/12/14 12:58:32;;;;;;;;;;;;;;;;;;6338910;28;19912;-80
2023/12/14 13:01:32;;;;;;;;;;;;;;;;;;6336775;28;19934;-80
2023/12/14 13:04:32;;;;;;;;;;;;;;;;;;6338650;28;19919;-80
2023/12/14 13:07:33;;;;;;;;;;;;;;;;;;6335650;28;19963;-80
2023/12/14 13:10:33;;;;;;;;;;;;;;;;;;6333605;28;19962;-80
2023/12/14 13:13:33;;;;;;;;;;;;;;;;;;6316279;28;19916;-80
2023/12/14 13:16:34;;;;;;;;;;;;;;;;;;6339456;28;19912;-80
2023/12/14 13:19:34;;;;;;;;;;;;;;;;;;6340714;28;20256;-80
2023/12/14 13:22:34;;;;;;;;;;;;;;;;;;6322372;28;19915;-80
2023/12/14 13:25:34;;;;;;;;;;;;;;;;;;6319624;28;19980;-81
2023/12/14 13:28:35;;;;;;;;;;;;;;;;;;6335953;28;19912;-78
2023/12/14 13:31:35;;;;;;;;;;;;;;;;;;6333727;28;19955;-79
2023/12/14 13:34:35;;;;;;;;;;;;;;;;;;6336515;28;19981;-79
2023/12/14 13:37:35;;;;;;;;;;;;;;;;;;6341028;28;19919;-80
2023/12/14 13:40:35;;;;;;;;;;;;;;;;;;6338679;28;19961;-79
2023/12/14 13:43:35;;;;;;;;;;;;;;;;;;6338708;28;19916;-79
2023/12/14 13:46:36;;;;;;;;;;;;;;;;;;6340665;28;19927;-79
2023/12/14 13:49:36;;;;;;;;;;;;;;;;;;6340764;28;19919;-79
2023/12/14 13:52:36;;;;;;;;;;;;;;;;;;6339232;28;20331;-83
2023/12/14 13:55:36;;;;;;;;;;;;;;;;;;6339231;28;21062;-83
2023/12/14 13:58:38;;;;;;;;;;;;;;;;;;6339573;28;19999;-84
2023/12/14 14:01:38;;;;;;;;;;;;;;;;;;6317274;28;20428;-84
2023/12/14 14:04:38;;;;;;;;;;;;;;;;;;6336090;28;20383;-84
2023/12/14 14:07:38;;;;;;;;;;;;;;;;;;6321709;28;20291;-84
2023/12/14 14:10:39;;;;;;;;;;;;;;;;;;6345472;28;20371;-84
2023/12/14 14:13:39;;;;;;;;;;;;;;;;;;6339337;28;19922;-84
2023/12/14 14:16:39;;;;;;;;;;;;;;;;;;6346385;28;20261;-84
2023/12/14 14:19:39;;;;;;;;;;;;;;;;;;6339410;28;19920;-83
2023/12/14 14:22:39;;;;;;;;;;;;;;;;;;6327552;28;19919;-83
2023/12/14 14:25:40;;;;;;;;;;;;;;;;;;6338960;28;20010;-83
2023/12/14 14:28:40;;;;;;;;;;;;;;;;;;6343735;28;19922;-83
2023/12/14 14:31:40;;;;;;;;;;;;;;;;;;6341645;28;19919;-84
2023/12/14 14:34:41;;;;;;;;;;;;;;;;;;6339332;28;19924;-83
2023/12/14 14:37:45;;;;;;;;;;;;;;;;;;6341585;28;20069;-83
2023/12/14 14:40:45;;;;;;;;;;;;;;;;;;6319345;28;19911;-84
2023/12/14 14:43:45;;;;;;;;;;;;;;;;;;6344695;28;20398;-83
2023/12/14 14:46:45;;;;;;;;;;;;;;;;;;6345246;28;19919;-84
2023/12/14 14:49:45;;;;;;;;;;;;;;;;;;6342827;28;20244;-84
2023/12/14 14:52:45;;;;;;;;;;;;;;;;;;6326299;28;19912;-83
2023/12/14 14:55:45;;;;;;;;;;;;;;;;;;6336908;28;20371;-84
2023/12/14 14:58:46;;;;;;;;;;;;;;;;;;6320257;28;19920;-83
2023/12/14 15:01:46;;;;;;;;;;;;;;;;;;6338810;27;19981;-82
2023/12/14 15:04:47;;;;;;;;;;;;;;;;;;6338508;28;19947;-85
2023/12/14 15:07:47;;;;;;;;;;;;;;;;;;6342654;28;19920;-83
2023/12/14 15:10:47;;;;;;;;;;;;;;;;;;6322780;28;20014;-84
2023/12/14 15:13:47;;;;;;;;;;;;;;;;;;6340295;28;20333;-84
2023/12/14 15:16:47;;;;;;;;;;;;;;;;;;6324656;28;20273;-82
2023/12/14 15:19:47;;;;;;;;;;;;;;;;;;6342077;28;19919;-82
2023/12/14 15:22:48;;;;;;;;;;;;;;;;;;6342136;28;20314;-82
2023/12/14 15:25:48;;;;;;;;;;;;;;;;;;6340392;28;20604;-81
2023/12/14 15:28:48;;;;;;;;;;;;;;;;;;6337206;28;19912;-80
2023/12/14 15:31:49;;;;;;;;;;;;;;;;;;6340986;28;20347;-82
2023/12/14 15:34:49;;;;;;;;;;;;;;;;;;6340484;28;19912;-82
2023/12/14 15:37:49;;;;;;;;;;;;;;;;;;6341583;28;19919;-81
2023/12/14 15:40:50;;;;;;;;;;;;;;;;;;6340311;28;19923;-82
2023/12/14 15:43:50;;;;;;;;;;;;;;;;;;6339473;28;19911;-82
2023/12/14 15:46:50;;;;;;;;;;;;;;;;;;6343482;28;19923;-82
2023/12/14 15:49:50;;;;;;;;;;;;;;;;;;6342115;28;19912;-82
2023/12/14 15:52:50;;;;;;;;;;;;;;;;;;6342221;28;19919;-81
2023/12/14 15:55:50;;;;;;;;;;;;;;;;;;6320342;28;19927;-82
2023/12/14 15:58:51;;;;;;;;;;;;;;;;;;6338740;28;19973;-82
2023/12/14 16:01:51;;;;;;;;;;;;;;;;;;6318840;28;20395;-82
2023/12/14 16:04:51;;;;;;;;;;;;;;;;;;6323318;28;19918;-82
2023/12/14 16:07:52;;;;;;;;;;;;;;;;;;6339676;28;19919;-82
2023/12/14 16:10:53;;;;;;;;;;;;;;;;;;6333915;28;19912;-82
2023/12/14 16:13:53;;;;;;;;;;;;;;;;;;6335159;28;20280;-83
2023/12/14 16:16:53;;;;;;;;;;;;;;;;;;6336311;28;19919;-83
2023/12/14 16:19:53;;;;;;;;;;;;;;;;;;6340900;28;20363;-83
2023/12/14 16:22:53;;;;;;;;;;;;;;;;;;6328555;28;19991;-83
2023/12/14 16:25:57;;;;;;;;;;;;;;;;;;6337543;28;20371;-83
2023/12/14 16:28:57;;;;;;;;;;;;;;;;;;6338519;28;19912;-83
2023/12/14 16:31:57;;;;;;;;;;;;;;;;;;6337179;28;19981;-82
2023/12/14 16:34:57;;;;;;;;;;;;;;;;;;6338574;28;19912;-81
2023/12/14 16:37:58;;;;;;;;;;;;;;;;;;6339858;28;19916;-81
2023/12/14 16:40:58;;;;;;;;;;;;;;;;;;6336206;28;19919;-80
2023/12/14 16:43:58;;;;;;;;;;;;;;;;;;6337201;28;19918;-80
2023/12/14 16:46:58;;;;;;;;;;;;;;;;;;6335144;28;19927;-82
2023/12/14 16:49:58;;;;;;;;;;;;;;;;;;6335379;28;20039;-81
2023/12/14 16:52:58;;;;;;;;;;;;;;;;;;6337119;28;20560;-82
2023/12/14 16:55:58;;;;;;;;;;;;;;;;;;6337500;28;20268;-81
2023/12/14 16:58:59;;;;;;;;;;;;;;;;;;6335872;28;19934;-82
2023/12/14 17:01:59;;;;;;;;;;;;;;;;;;6337866;28;19926;-81
2023/12/14 17:04:59;;;;;;;;;;;;;;;;;;6339948;28;20375;-82
2023/12/14 17:07:59;;;;;;;;;;;;;;;;;;6337340;28;19927;-82
2023/12/14 17:11:00;;;;;;;;;;;;;;;;;;6335344;28;19919;-81
2023/12/14 17:14:00;;;;;;;;;;;;;;;;;;6340301;28;20630;-82
2023/12/14 17:17:00;;;;;;;;;;;;;;;;;;6338889;28;19923;-82
2023/12/14 17:20:01;;;;;;;;;;;;;;;;;;6317271;28;19920;-81
2023/12/14 17:23:01;;;;;;;;;;;;;;;;;;6341796;28;20351;-82
2023/12/14 17:26:01;;;;;;;;;;;;;;;;;;6337067;28;20303;-85
2023/12/14 17:29:06;;;;;;;;;;;;;;;;;;6329716;28;20396;-83
2023/12/14 17:32:06;;;;;;;;;;;;;;;;;;6337123;28;20442;-84
2023/12/14 17:35:06;;;;;;;;;;;;;;;;;;6333572;28;19920;-84
2023/12/14 17:38:06;;;;;;;;;;;;;;;;;;6329174;28;19924;-85
2023/12/14 17:41:06;;;;;;;;;;;;;;;;;;6318307;28;20385;-86
2023/12/14 17:44:06;;;;;;;;;;;;;;;;;;6340090;28;20419;-83
2023/12/14 17:47:07;;;;;;;;;;;;;;;;;;6347026;28;20407;-82
2023/12/14 17:50:07;;;;;;;;;;;;;;;;;;6341282;28;19912;-81
2023/12/14 17:53:07;;;;;;;;;;;;;;;;;;6323340;28;20014;-82
2023/12/14 17:56:07;;;;;;;;;;;;;;;;;;6334775;28;20003;-82
2023/12/14 17:59:07;;;;;;;;;;;;;;;;;;6327149;28;19924;-81
2023/12/14 18:02:07;;;;;;;;;;;;;;;;;;6336066;28;19959;-81
2023/12/14 18:05:08;;;;;;;;;;;;;;;;;;6340867;28;20044;-82
2023/12/14 18:08:08;;;;;;;;;;;;;;;;;;6329825;28;19924;-81
2023/12/14 18:11:08;;;;;;;;;;;;;;;;;;6323567;28;19918;-86
2023/12/14 18:14:08;;;;;;;;;;;;;;;;;;6341872;28;20360;-82
2023/12/14 18:17:08;;;;;;;;;;;;;;;;;;6330866;28;20360;-81
2023/12/14 18:20:08;;;;;;;;;;;;;;;;;;6340599;28;19951;-84
2023/12/14 18:23:08;;;;;;;;;;;;;;;;;;6339608;28;20283;-82
2023/12/14 18:26:09;;;;;;;;;;;;;;;;;;6342019;28;20327;-82
2023/12/14 18:29:09;;;;;;;;;;;;;;;;;;6327429;28;20110;-82
2023/12/14 18:32:09;;;;;;;;;;;;;;;;;;6340830;28;20384;-82
2023/12/14 18:35:09;;;;;;;;;;;;;;;;;;6340304;27;19920;-82
2023/12/14 18:38:09;;;;;;;;;;;;;;;;;;6342478;28;20284;-82
2023/12/14 18:41:09;;;;;;;;;;;;;;;;;;6343614;28;19962;-82
2023/12/14 18:44:10;;;;;;;;;;;;;;;;;;6341015;28;20437;-82
2023/12/14 18:47:10;;;;;;;;;;;;;;;;;;6344134;28;20376;-81
2023/12/14 18:50:10;;;;;;;;;;;;;;;;;;6341470;28;19915;-82
2023/12/14 18:53:10;;;;;;;;;;;;;;;;;;6346022;28;19911;-82
2023/12/14 18:56:10;;;;;;;;;;;;;;;;;;6339249;28;19912;-81
2023/12/14 18:59:11;;;;;;;;;;;;;;;;;;6338430;28;19918;-82
2023/12/14 19:02:11;;;;;;;;;;;;;;;;;;6345936;28;19928;-82
2023/12/14 19:05:13;;;;;;;;;;;;;;;;;;6344621;28;19926;-82
2023/12/14 19:08:13;;;;;;;;;;;;;;;;;;6339441;28;19919;-82
2023/12/14 19:11:13;;;;;;;;;;;;;;;;;;6343019;28;19958;-83
2023/12/14 19:14:13;;;;;;;;;;;;;;;;;;6340363;28;19957;-82
2023/12/14 19:17:13;;;;;;;;;;;;;;;;;;6345244;28;19916;-82
2023/12/14 19:20:14;;;;;;;;;;;;;;;;;;6342180;28;20279;-83
2023/12/14 19:23:14;;;;;;;;;;;;;;;;;;6344374;28;19922;-82
2023/12/14 19:26:14;;;;;;;;;;;;;;;;;;6342141;28;19923;-82
2023/12/14 19:29:14;;;;;;;;;;;;;;;;;;6323028;28;19912;-85
2023/12/14 19:32:14;;;;;;;;;;;;;;;;;;6343153;28;19972;-82
2023/12/14 19:35:15;;;;;;;;;;;;;;;;;;6343318;28;19916;-81
2023/12/14 19:38:15;;;;;;;;;;;;;;;;;;6338305;28;19918;-82
2023/12/14 19:41:15;;;;;;;;;;;;;;;;;;6337515;28;19916;-82
2023/12/14 19:44:15;;;;;;;;;;;;;;;;;;6336957;28;20375;-82
2023/12/14 19:47:18;;;;;;;;;;;;;;;;;;6341103;28;20010;-83
2023/12/14 19:50:18;;;;;;;;;;;;;;;;;;6341802;28;20371;-82
2023/12/14 19:53:18;;;;;;;;;;;;;;;;;;6335573;28;19926;-82
2023/12/14 19:56:19;;;;;;;;;;;;;;;;;;6341065;28;19919;-83
2023/12/14 19:59:19;;;;;;;;;;;;;;;;;;6336773;28;19912;-86
2023/12/14 20:02:19;;;;;;;;;;;;;;;;;;6334984;28;19932;-86
2023/12/14 20:05:19;;;;;;;;;;;;;;;;;;6338509;28;19912;-85
2023/12/14 20:08:21;;;;;;;;;;;;;;;;;;6341606;28;19923;-84
2023/12/14 20:11:21;;;;;;;;;;;;;;;;;;6339139;28;20062;-85
2023/12/14 20:14:21;;;;;;;;;;;;;;;;;;6321085;28;20435;-84
2023/12/14 20:17:22;;;;;;;;;;;;;;;;;;6338458;28;19930;-84
2023/12/14 20:20:22;;;;;;;;;;;;;;;;;;6335471;28;20321;-84
2023/12/14 20:23:22;;;;;;;;;;;;;;;;;;6332728;28;20272;-85
2023/12/14 20:26:22;;;;;;;;;;;;;;;;;;6335398;28;20002;-85
2023/12/14 20:29:22;;;;;;;;;;;;;;;;;;6337407;28;19912;-86